In Rescue
 
Open Full Screen Window  High Contrast Mode
Wind Gusting 00 knots
05
July 23, 2019 12:43 AM EDT
Weather Information
Wind Direction
  280 °
Wind Speed
  05 kt (6 mph)
Wind Gust
  00 kt (0 mph)
Altimeter
30.01 in
Visibility
10 SM
Temperature
17° C
63° F
Dewpoint
13° C
55° F
Humidity
77%
Sky Condition
Scattered @ 6,500 ft
VFR

METAR KCFS 230443Z AUTO 28005KT 10SM SCT065 17/13 A3001 RMK AO2 T01710125

FAA Disclaimer: The data displayed is for advisory purposes only and is not to be used for flight planning or operations.